GLO9913 SPJC-SBCF
Flight info
| Callsign | GLO9913 |
|---|---|
| Flight time | N/A |
| Altitude | 36000 |
| Route | PAKOL UM668 ZCO UV10 URC UM668 TRI UN420 VIR UM411 TITVO UZ82 ANSOK UZ42 VUREP |
| Aircraft | B738/M-SDFGIKLORWXY/LB1 |
Departure
| Time | N/A |
|---|---|
| Airport | Jorge Chávez International Airport (SPJC) |
Arrival
| Time | 2026-05-06 14:07 |
|---|---|
| Airport | Tancredo Neves International Airport (SBCF) |
| Time | Latitude | Longitude | Altitude | Speed | Heading |
|---|---|---|---|---|---|
| 2026-05-06 13:07 | -18.54215 | -49.28479 | 36178 ft | 481 kts | 108° |
| 2026-05-06 13:07 | -18.54870 | -49.25004 | 36181 ft | 481 kts | 108° |
| 2026-05-06 13:08 | -18.56171 | -49.18085 | 36179 ft | 481 kts | 108° |
| 2026-05-06 13:08 | -18.57465 | -49.11197 | 36182 ft | 480 kts | 108° |
| 2026-05-06 13:09 | -18.58763 | -49.04271 | 36190 ft | 480 kts | 108° |
| 2026-05-06 13:10 | -18.61385 | -48.90232 | 36190 ft | 481 kts | 108° |
| 2026-05-06 13:10 | -18.62671 | -48.83326 | 36187 ft | 481 kts | 108° |
| 2026-05-06 13:11 | -18.63954 | -48.76421 | 36187 ft | 480 kts | 108° |
| 2026-05-06 13:11 | -18.65232 | -48.69524 | 36191 ft | 480 kts | 108° |
| 2026-05-06 13:12 | -18.66517 | -48.62581 | 36185 ft | 480 kts | 108° |
| 2026-05-06 13:12 | -18.67787 | -48.55696 | 36189 ft | 479 kts | 108° |
| 2026-05-06 13:13 | -18.69058 | -48.48799 | 36206 ft | 480 kts | 108° |
| 2026-05-06 13:13 | -18.70324 | -48.41914 | 36229 ft | 479 kts | 108° |
| 2026-05-06 13:14 | -18.71592 | -48.34999 | 36250 ft | 479 kts | 108° |
| 2026-05-06 13:14 | -18.72859 | -48.28081 | 36274 ft | 479 kts | 108° |
| 2026-05-06 13:15 | -18.74112 | -48.21220 | 36269 ft | 479 kts | 108° |
| 2026-05-06 13:15 | -18.75367 | -48.14335 | 36268 ft | 479 kts | 108° |
| 2026-05-06 13:16 | -18.76626 | -48.07414 | 36259 ft | 479 kts | 109° |
| 2026-05-06 13:16 | -18.77875 | -48.00529 | 36244 ft | 479 kts | 109° |
| 2026-05-06 13:17 | -18.79123 | -47.93637 | 36213 ft | 479 kts | 109° |
| 2026-05-06 13:17 | -18.80375 | -47.86707 | 36203 ft | 479 kts | 109° |
| 2026-05-06 13:18 | -18.81616 | -47.79826 | 36203 ft | 479 kts | 109° |
| 2026-05-06 13:18 | -18.82856 | -47.72933 | 36204 ft | 478 kts | 109° |
| 2026-05-06 13:19 | -18.84097 | -47.66016 | 36201 ft | 478 kts | 109° |
| 2026-05-06 13:19 | -18.85331 | -47.59129 | 36209 ft | 479 kts | 109° |
| 2026-05-06 13:20 | -18.86563 | -47.52239 | 36199 ft | 479 kts | 109° |
| 2026-05-06 13:20 | -18.87791 | -47.45351 | 36214 ft | 478 kts | 109° |
| 2026-05-06 13:21 | -18.89025 | -47.38415 | 36195 ft | 479 kts | 109° |
| 2026-05-06 13:21 | -18.90243 | -47.31548 | 36206 ft | 478 kts | 109° |
| 2026-05-06 13:22 | -18.91469 | -47.24627 | 36202 ft | 478 kts | 109° |
| 2026-05-06 13:22 | -18.92687 | -47.17737 | 36201 ft | 478 kts | 109° |
| 2026-05-06 13:23 | -18.93901 | -47.10853 | 36210 ft | 478 kts | 109° |
| 2026-05-06 13:23 | -18.95119 | -47.03933 | 36215 ft | 478 kts | 109° |
| 2026-05-06 13:24 | -18.96327 | -46.97052 | 36206 ft | 478 kts | 109° |
| 2026-05-06 13:24 | -18.97538 | -46.90138 | 36217 ft | 478 kts | 109° |
| 2026-05-06 13:25 | -18.98741 | -46.83254 | 36217 ft | 478 kts | 109° |
| 2026-05-06 13:25 | -18.99942 | -46.76367 | 36211 ft | 478 kts | 109° |
| 2026-05-06 13:26 | -19.00942 | -46.70615 | 36213 ft | 477 kts | 109° |
| 2026-05-06 13:26 | -19.02112 | -46.63874 | 36214 ft | 476 kts | 109° |
| 2026-05-06 13:27 | -19.03300 | -46.57020 | 36214 ft | 476 kts | 109° |
| 2026-05-06 13:27 | -19.04490 | -46.50137 | 36215 ft | 476 kts | 109° |
| 2026-05-06 13:28 | -19.05679 | -46.43247 | 36213 ft | 476 kts | 109° |
| 2026-05-06 13:28 | -19.06858 | -46.36393 | 36220 ft | 476 kts | 109° |
| 2026-05-06 13:29 | -19.08045 | -46.29484 | 36217 ft | 477 kts | 109° |
| 2026-05-06 13:29 | -19.09221 | -46.22620 | 36215 ft | 477 kts | 109° |
| 2026-05-06 13:30 | -19.10405 | -46.15689 | 36216 ft | 477 kts | 109° |
| 2026-05-06 13:30 | -19.11576 | -46.08815 | 36219 ft | 477 kts | 109° |
| 2026-05-06 13:31 | -19.12755 | -46.01887 | 36164 ft | 478 kts | 109° |
| 2026-05-06 13:31 | -19.13351 | -45.98397 | 35507 ft | 483 kts | 109° |
| 2026-05-06 13:31 | -19.13936 | -45.94943 | 34843 ft | 480 kts | 109° |
| 2026-05-06 13:31 | -19.14524 | -45.91461 | 34064 ft | 479 kts | 109° |
| 2026-05-06 13:32 | -19.15110 | -45.87991 | 33362 ft | 477 kts | 108° |
| 2026-05-06 13:32 | -19.15680 | -45.84596 | 32812 ft | 471 kts | 108° |
| 2026-05-06 13:32 | -19.16253 | -45.81185 | 32255 ft | 466 kts | 108° |
| 2026-05-06 13:32 | -19.16813 | -45.77848 | 31727 ft | 461 kts | 107° |
| 2026-05-06 13:33 | -19.17373 | -45.74519 | 31202 ft | 456 kts | 107° |
| 2026-05-06 13:33 | -19.17927 | -45.71226 | 30783 ft | 449 kts | 106° |
| 2026-05-06 13:33 | -19.18469 | -45.67992 | 30571 ft | 446 kts | 106° |
| 2026-05-06 13:33 | -19.19022 | -45.64742 | 30363 ft | 460 kts | 106° |
| 2026-05-06 13:34 | -19.19603 | -45.61342 | 30040 ft | 474 kts | 105° |
| 2026-05-06 13:34 | -19.20180 | -45.57929 | 29361 ft | 472 kts | 105° |
| 2026-05-06 13:34 | -19.20745 | -45.54526 | 28726 ft | 465 kts | 104° |
| 2026-05-06 13:34 | -19.21302 | -45.51158 | 28071 ft | 459 kts | 104° |
| 2026-05-06 13:35 | -19.21844 | -45.47884 | 27426 ft | 454 kts | 104° |
| 2026-05-06 13:35 | -19.22388 | -45.44600 | 26798 ft | 448 kts | 104° |
| 2026-05-06 13:35 | -19.22921 | -45.41391 | 26194 ft | 444 kts | 103° |
| 2026-05-06 13:35 | -19.23455 | -45.38182 | 25581 ft | 440 kts | 103° |
| 2026-05-06 13:36 | -19.23985 | -45.34995 | 24976 ft | 436 kts | 103° |
| 2026-05-06 13:36 | -19.24509 | -45.31847 | 24345 ft | 433 kts | 103° |
| 2026-05-06 13:36 | -19.25023 | -45.28750 | 23736 ft | 430 kts | 102° |
| 2026-05-06 13:36 | -19.25542 | -45.25621 | 23022 ft | 427 kts | 102° |
| 2026-05-06 13:37 | -19.26047 | -45.22566 | 22382 ft | 423 kts | 102° |
| 2026-05-06 13:37 | -19.26552 | -45.19510 | 21763 ft | 418 kts | 102° |
| 2026-05-06 13:37 | -19.27052 | -45.16480 | 21161 ft | 414 kts | 102° |
| 2026-05-06 13:37 | -19.27546 | -45.13488 | 20577 ft | 410 kts | 101° |
| 2026-05-06 13:38 | -19.28028 | -45.10563 | 19989 ft | 407 kts | 101° |
| 2026-05-06 13:38 | -19.28512 | -45.07623 | 19411 ft | 403 kts | 101° |
| 2026-05-06 13:38 | -19.28992 | -45.04702 | 18814 ft | 401 kts | 101° |
| 2026-05-06 13:38 | -19.29469 | -45.01799 | 18176 ft | 399 kts | 101° |
| 2026-05-06 13:39 | -19.29939 | -44.98940 | 17550 ft | 395 kts | 101° |
| 2026-05-06 13:39 | -19.30408 | -44.96083 | 16957 ft | 391 kts | 101° |
| 2026-05-06 13:39 | -19.30869 | -44.93263 | 16383 ft | 387 kts | 100° |
| 2026-05-06 13:39 | -19.31325 | -44.90473 | 15823 ft | 383 kts | 100° |
| 2026-05-06 13:40 | -19.31778 | -44.87699 | 15273 ft | 379 kts | 99° |
| 2026-05-06 13:40 | -19.32226 | -44.84953 | 14732 ft | 376 kts | 99° |
| 2026-05-06 13:40 | -19.32658 | -44.82302 | 14565 ft | 362 kts | 99° |
| 2026-05-06 13:40 | -19.33082 | -44.79702 | 14399 ft | 350 kts | 99° |
| 2026-05-06 13:41 | -19.33492 | -44.77189 | 14235 ft | 338 kts | 99° |
| 2026-05-06 13:41 | -19.33882 | -44.74798 | 14113 ft | 328 kts | 99° |
| 2026-05-06 13:41 | -19.34265 | -44.72443 | 13962 ft | 318 kts | 99° |
| 2026-05-06 13:41 | -19.34637 | -44.70154 | 13818 ft | 309 kts | 98° |
| 2026-05-06 13:42 | -19.34992 | -44.67966 | 13691 ft | 300 kts | 98° |
| 2026-05-06 13:42 | -19.35342 | -44.65809 | 13572 ft | 292 kts | 98° |
| 2026-05-06 13:42 | -19.35676 | -44.63740 | 13452 ft | 283 kts | 98° |
| 2026-05-06 13:42 | -19.36005 | -44.61701 | 13341 ft | 276 kts | 98° |
| 2026-05-06 13:43 | -19.36326 | -44.59715 | 13234 ft | 269 kts | 98° |
| 2026-05-06 13:43 | -19.36634 | -44.57808 | 13148 ft | 260 kts | 98° |
| 2026-05-06 13:43 | -19.36942 | -44.55905 | 12816 ft | 263 kts | 98° |
| 2026-05-06 13:43 | -19.37250 | -44.53990 | 12553 ft | 263 kts | 98° |
| 2026-05-06 13:44 | -19.37556 | -44.52094 | 12273 ft | 263 kts | 98° |
| 2026-05-06 13:44 | -19.37861 | -44.50187 | 12014 ft | 262 kts | 98° |
| 2026-05-06 13:44 | -19.38165 | -44.48299 | 11750 ft | 262 kts | 98° |
| 2026-05-06 13:44 | -19.38474 | -44.46398 | 11504 ft | 261 kts | 98° |
| 2026-05-06 13:45 | -19.38780 | -44.44506 | 11263 ft | 260 kts | 98° |
| 2026-05-06 13:45 | -19.39389 | -44.40716 | 10751 ft | 260 kts | 98° |
| 2026-05-06 13:45 | -19.39690 | -44.38835 | 10488 ft | 261 kts | 98° |
| 2026-05-06 13:46 | -19.39994 | -44.36942 | 10283 ft | 258 kts | 98° |
| 2026-05-06 13:46 | -19.40290 | -44.35091 | 10214 ft | 250 kts | 98° |
| 2026-05-06 13:46 | -19.40572 | -44.33326 | 10206 ft | 240 kts | 98° |
| 2026-05-06 13:46 | -19.40848 | -44.31611 | 10179 ft | 230 kts | 98° |
| 2026-05-06 13:47 | -19.41108 | -44.29987 | 10191 ft | 225 kts | 98° |
| 2026-05-06 13:47 | -19.41359 | -44.28411 | 10208 ft | 225 kts | 98° |
| 2026-05-06 13:47 | -19.41622 | -44.26760 | 10200 ft | 228 kts | 98° |
| 2026-05-06 13:47 | -19.41884 | -44.25123 | 10217 ft | 227 kts | 98° |
| 2026-05-06 13:48 | -19.42150 | -44.23461 | 10213 ft | 227 kts | 98° |
| 2026-05-06 13:48 | -19.42413 | -44.21810 | 10207 ft | 227 kts | 98° |
| 2026-05-06 13:48 | -19.42672 | -44.20188 | 10222 ft | 225 kts | 98° |
| 2026-05-06 13:48 | -19.42929 | -44.18565 | 10213 ft | 223 kts | 98° |
| 2026-05-06 13:49 | -19.43188 | -44.16940 | 9956 ft | 225 kts | 98° |
| 2026-05-06 13:49 | -19.43626 | -44.15330 | 9516 ft | 231 kts | 119° |
| 2026-05-06 13:49 | -19.44662 | -44.14051 | 9154 ft | 233 kts | 135° |
| 2026-05-06 13:49 | -19.45893 | -44.12924 | 8791 ft | 234 kts | 137° |
| 2026-05-06 13:50 | -19.47142 | -44.11806 | 8513 ft | 235 kts | 137° |
| 2026-05-06 13:50 | -19.48178 | -44.10498 | 8237 ft | 232 kts | 113° |
| 2026-05-06 13:50 | -19.48809 | -44.08952 | 8026 ft | 232 kts | 111° |
| 2026-05-06 13:50 | -19.49456 | -44.07378 | 7811 ft | 231 kts | 112° |
| 2026-05-06 13:51 | -19.50100 | -44.05839 | 7606 ft | 231 kts | 112° |
| 2026-05-06 13:51 | -19.50755 | -44.04272 | 7362 ft | 234 kts | 112° |
| 2026-05-06 13:51 | -19.51424 | -44.02696 | 7130 ft | 235 kts | 112° |
| 2026-05-06 13:51 | -19.52102 | -44.01114 | 6897 ft | 236 kts | 113° |
| 2026-05-06 13:52 | -19.52784 | -43.99529 | 6676 ft | 235 kts | 114° |
| 2026-05-06 13:52 | -19.53467 | -43.97966 | 6428 ft | 237 kts | 113° |
| 2026-05-06 13:52 | -19.54154 | -43.96359 | 6183 ft | 240 kts | 113° |
| 2026-05-06 13:52 | -19.54831 | -43.94760 | 5922 ft | 239 kts | 113° |
| 2026-05-06 13:53 | -19.55514 | -43.93170 | 5707 ft | 236 kts | 113° |
| 2026-05-06 13:53 | -19.56220 | -43.91578 | 5461 ft | 241 kts | 111° |
| 2026-05-06 13:53 | -19.56904 | -43.89949 | 5180 ft | 241 kts | 115° |
| 2026-05-06 13:53 | -19.57609 | -43.88330 | 4945 ft | 244 kts | 112° |
| 2026-05-06 13:54 | -19.58028 | -43.86591 | 4689 ft | 246 kts | 96° |
| 2026-05-06 13:54 | -19.58237 | -43.84797 | 4451 ft | 249 kts | 98° |
| 2026-05-06 13:54 | -19.58484 | -43.82994 | 4454 ft | 243 kts | 97° |
| 2026-05-06 13:54 | -19.58730 | -43.81227 | 4415 ft | 242 kts | 97° |
| 2026-05-06 13:55 | -19.58969 | -43.79476 | 4496 ft | 235 kts | 97° |
| 2026-05-06 13:55 | -19.59173 | -43.77825 | 4930 ft | 218 kts | 97° |
| 2026-05-06 13:55 | -19.59410 | -43.76229 | 5362 ft | 223 kts | 98° |
| 2026-05-06 13:55 | -19.59930 | -43.74662 | 6361 ft | 225 kts | 120° |
| 2026-05-06 13:56 | -19.60947 | -43.73363 | 6830 ft | 233 kts | 139° |
| 2026-05-06 13:56 | -19.62396 | -43.72566 | 6961 ft | 245 kts | 161° |
| 2026-05-06 13:56 | -19.64116 | -43.72471 | 6957 ft | 250 kts | 187° |
| 2026-05-06 13:56 | -19.65728 | -43.73214 | 6956 ft | 257 kts | 215° |
| 2026-05-06 13:57 | -19.66860 | -43.74659 | 6963 ft | 263 kts | 243° |
| 2026-05-06 13:57 | -19.67257 | -43.76545 | 6959 ft | 261 kts | 273° |
| 2026-05-06 13:57 | -19.66802 | -43.78391 | 6990 ft | 260 kts | 300° |
| 2026-05-06 13:57 | -19.65702 | -43.79898 | 7009 ft | 256 kts | 319° |
| 2026-05-06 13:58 | -19.64422 | -43.81199 | 6969 ft | 257 kts | 320° |
| 2026-05-06 13:58 | -19.63102 | -43.82474 | 6978 ft | 256 kts | 321° |
| 2026-05-06 13:58 | -19.61763 | -43.83745 | 6966 ft | 260 kts | 319° |
| 2026-05-06 13:58 | -19.60430 | -43.85046 | 6998 ft | 260 kts | 321° |
| 2026-05-06 13:59 | -19.59070 | -43.86330 | 6981 ft | 260 kts | 321° |
| 2026-05-06 13:59 | -19.57719 | -43.87602 | 6968 ft | 255 kts | 322° |
| 2026-05-06 13:59 | -19.56403 | -43.88843 | 6971 ft | 255 kts | 321° |
| 2026-05-06 13:59 | -19.55081 | -43.90106 | 6976 ft | 255 kts | 321° |
| 2026-05-06 14:00 | -19.53768 | -43.91352 | 6939 ft | 256 kts | 321° |
| 2026-05-06 14:00 | -19.52446 | -43.92607 | 6973 ft | 255 kts | 321° |
| 2026-05-06 14:00 | -19.51119 | -43.93866 | 6951 ft | 255 kts | 321° |
| 2026-05-06 14:00 | -19.49803 | -43.95135 | 6956 ft | 257 kts | 320° |
| 2026-05-06 14:01 | -19.48488 | -43.96396 | 6926 ft | 257 kts | 321° |
| 2026-05-06 14:01 | -19.47166 | -43.97651 | 6903 ft | 250 kts | 321° |
| 2026-05-06 14:01 | -19.45886 | -43.98866 | 6943 ft | 248 kts | 321° |
| 2026-05-06 14:01 | -19.44748 | -44.00271 | 6902 ft | 256 kts | 296° |
| 2026-05-06 14:02 | -19.44412 | -44.02098 | 6847 ft | 253 kts | 263° |
| 2026-05-06 14:02 | -19.45030 | -44.03797 | 6600 ft | 254 kts | 231° |
| 2026-05-06 14:02 | -19.46174 | -44.05236 | 6304 ft | 253 kts | 225° |
| 2026-05-06 14:02 | -19.47349 | -44.06620 | 5981 ft | 252 kts | 225° |
| 2026-05-06 14:03 | -19.48527 | -44.07914 | 5723 ft | 236 kts | 213° |
| 2026-05-06 14:03 | -19.49990 | -44.08451 | 5466 ft | 218 kts | 174° |
| 2026-05-06 14:03 | -19.51324 | -44.07995 | 5283 ft | 191 kts | 144° |
| 2026-05-06 14:03 | -19.52342 | -44.07155 | 5113 ft | 180 kts | 135° |
| 2026-05-06 14:04 | -19.53203 | -44.06342 | 5064 ft | 158 kts | 135° |
| 2026-05-06 14:04 | -19.53986 | -44.05605 | 4890 ft | 146 kts | 135° |
| 2026-05-06 14:04 | -19.54731 | -44.04883 | 4722 ft | 147 kts | 134° |
| 2026-05-06 14:04 | -19.55528 | -44.04203 | 4565 ft | 146 kts | 136° |
| 2026-05-06 14:05 | -19.56296 | -44.03468 | 4359 ft | 151 kts | 134° |
| 2026-05-06 14:05 | -19.57095 | -44.02705 | 4154 ft | 151 kts | 136° |
| 2026-05-06 14:05 | -19.57885 | -44.01997 | 3947 ft | 146 kts | 130° |
| 2026-05-06 14:05 | -19.58630 | -44.01252 | 3793 ft | 152 kts | 139° |
| 2026-05-06 14:06 | -19.59439 | -44.00494 | 3539 ft | 153 kts | 136° |
| 2026-05-06 14:06 | -19.60243 | -43.99776 | 3355 ft | 154 kts | 137° |
| 2026-05-06 14:06 | -19.61065 | -43.99019 | 3229 ft | 153 kts | 136° |
| 2026-05-06 14:06 | -19.61863 | -43.98280 | 3068 ft | 152 kts | 134° |
| 2026-05-06 14:07 | -19.62636 | -43.97560 | 2856 ft | 139 kts | 137° |
| 2026-05-06 14:07 | -19.63295 | -43.96945 | 2836 ft | 109 kts | 139° |
| 2026-05-06 14:07 | -19.63545 | -43.96702 | 2837 ft | 18 kts | 120° |
| 2026-05-06 14:07 | -19.63588 | -43.96593 | 2835 ft | 8 kts | 109° |
| 2026-05-06 14:08 | -19.63607 | -43.96535 | 2836 ft | 8 kts | 109° |
| 2026-05-06 14:08 | -19.63625 | -43.96479 | 2838 ft | 8 kts | 109° |
| 2026-05-06 14:08 | -19.63640 | -43.96425 | 2836 ft | 8 kts | 101° |
| 2026-05-06 14:08 | -19.63631 | -43.96373 | 2838 ft | 7 kts | 52° |
| 2026-05-06 14:09 | -19.63587 | -43.96345 | 2836 ft | 7 kts | 27° |
| 2026-05-06 14:09 | -19.63543 | -43.96321 | 2836 ft | 7 kts | 28° |
| 2026-05-06 14:09 | -19.63501 | -43.96296 | 2838 ft | 7 kts | 28° |
| 2026-05-06 14:09 | -19.63456 | -43.96284 | 2836 ft | 7 kts | 346° |
| 2026-05-06 14:10 | -19.63427 | -43.96321 | 2838 ft | 7 kts | 301° |
| 2026-05-06 14:10 | -19.63405 | -43.96363 | 2836 ft | 6 kts | 298° |
| 2026-05-06 14:10 | -19.63384 | -43.96404 | 2837 ft | 6 kts | 302° |
| 2026-05-06 14:10 | -19.63356 | -43.96439 | 2836 ft | 6 kts | 314° |
| 2026-05-06 14:11 | -19.63329 | -43.96467 | 2836 ft | 1 kts | 316° |
| 2026-05-06 14:11 | -19.63323 | -43.96467 | 2836 ft | 1 kts | 2° |
| 2026-05-06 14:11 | -19.63310 | -43.96460 | 2836 ft | 3 kts | 32° |
| 2026-05-06 14:11 | -19.63296 | -43.96442 | 2838 ft | 3 kts | 56° |
| 2026-05-06 14:12 | -19.63292 | -43.96436 | 2837 ft | 0 kts | 56° |
| 2026-05-06 14:12 | -19.63291 | -43.96435 | 2837 ft | 0 kts | 56° |
| 2026-05-06 14:12 | -19.63290 | -43.96432 | 2838 ft | 0 kts | 56° |